Time;durP1;ratioP1;P1;durP2;ratioP2;P2;SDS_P1;SDS_P2;PMS_P1;PMS_P2;Temp;Humidity;BMP_temperature;BMP_pressure;BME280_temperature;BME280_humidity;BME280_pressure;Samples;Min_cycle;Max_cycle;Signal;HPM_P1;HPM_P2
2021/09/08 00:00:32;;;;;;;;;;;21.90;52.90;;;;;;501410;237;1127;-72
2021/09/08 00:02:33;;;;;;;;;;;21.90;52.80;;;;;;501463;237;2184;-72
2021/09/08 00:04:35;;;;;;;;;;;22.00;52.80;;;;;;501462;237;1098;-72
2021/09/08 00:06:36;;;;;;;;;;;22.00;52.50;;;;;;501445;237;1159;-72
2021/09/08 00:08:37;;;;;;;;;;;22.00;52.60;;;;;;501457;237;1137;-72
2021/09/08 00:10:39;;;;;;;;;;;21.90;52.70;;;;;;501323;237;1217;-72
2021/09/08 00:12:40;;;;;;;;;;;21.90;52.70;;;;;;501321;237;1070;-72
2021/09/08 00:14:42;;;;;;;;;;;21.90;52.70;;;;;;501819;237;1036;-71
2021/09/08 00:16:43;;;;;;;;;;;21.90;52.70;;;;;;501534;237;1172;-71
2021/09/08 00:18:44;;;;;;;;;;;21.90;52.50;;;;;;501488;237;1091;-72
2021/09/08 00:20:46;;;;;;;;;;;21.90;52.60;;;;;;501474;237;1035;-72
2021/09/08 00:22:47;;;;;;;;;;;21.90;52.60;;;;;;501583;235;2139;-72
2021/09/08 00:24:48;;;;;;;;;;;21.90;52.50;;;;;;501510;237;1085;-72
2021/09/08 00:26:50;;;;;;;;;;;21.90;52.50;;;;;;501908;237;1114;-72
2021/09/08 00:28:51;;;;;;;;;;;22.00;52.40;;;;;;501475;237;1150;-72
2021/09/08 00:30:52;;;;;;;;;;;21.90;52.30;;;;;;501453;237;1050;-72
2021/09/08 00:32:54;;;;;;;;;;;21.90;52.30;;;;;;501501;237;1210;-72
2021/09/08 00:34:55;;;;;;;;;;;21.90;52.20;;;;;;501460;237;1043;-72
2021/09/08 00:36:56;;;;;;;;;;;22.10;51.70;;;;;;501611;237;1141;-72
2021/09/08 00:38:58;;;;;;;;;;;21.90;52.10;;;;;;501394;237;1193;-72
2021/09/08 00:40:59;;;;;;;;;;;22.00;51.90;;;;;;501446;237;1169;-72
2021/09/08 00:43:00;;;;;;;;;;;22.00;51.90;;;;;;501573;237;2183;-72
2021/09/08 00:45:02;;;;;;;;;;;21.90;51.90;;;;;;501495;237;1073;-72
2021/09/08 00:47:03;;;;;;;;;;;21.90;51.90;;;;;;501442;237;1044;-72
2021/09/08 00:49:04;;;;;;;;;;;21.90;52.10;;;;;;501493;237;1076;-72
2021/09/08 00:51:05;;;;;;;;;;;22.00;51.90;;;;;;501434;237;1274;-72
2021/09/08 00:53:07;;;;;;;;;;;22.00;51.70;;;;;;501523;237;1075;-72
2021/09/08 00:55:08;;;;;;;;;;;22.00;51.70;;;;;;501822;233;1307;-72
2021/09/08 00:57:09;;;;;;;;;;;21.90;51.60;;;;;;501594;237;1178;-72
2021/09/08 00:59:11;;;;;;;;;;;21.80;51.80;;;;;;501457;237;1062;-72
2021/09/08 01:01:12;;;;;;;;;;;21.90;51.80;;;;;;501419;237;1282;-72
2021/09/08 01:03:13;;;;;;;;;;;21.90;51.60;;;;;;501479;237;2136;-72
2021/09/08 01:05:15;;;;;;;;;;;21.90;51.60;;;;;;501501;237;1036;-72
2021/09/08 01:07:16;;;;;;;;;;;22.00;51.40;;;;;;501454;237;1108;-72
2021/09/08 01:09:17;;;;;;;;;;;22.00;51.50;;;;;;501450;237;1108;-72
2021/09/08 01:11:19;;;;;;;;;;;21.90;51.40;;;;;;501499;234;1164;-72
2021/09/08 01:13:20;;;;;;;;;;;21.90;51.50;;;;;;501664;237;1181;-72
2021/09/08 01:15:21;;;;;;;;;;;21.90;51.30;;;;;;501523;237;1107;-72
2021/09/08 01:17:23;;;;;;;;;;;21.80;51.60;;;;;;501769;237;1121;-72
2021/09/08 01:19:24;;;;;;;;;;;21.90;51.50;;;;;;501607;237;1044;-72
2021/09/08 01:21:25;;;;;;;;;;;21.80;51.50;;;;;;501350;237;1021;-72
2021/09/08 01:23:27;;;;;;;;;;;21.80;51.50;;;;;;501395;237;2180;-72
2021/09/08 01:25:28;;;;;;;;;;;21.80;51.40;;;;;;501737;237;1164;-72
2021/09/08 01:27:30;;;;;;;;;;;21.80;51.50;;;;;;501577;237;1056;-72
2021/09/08 01:29:31;;;;;;;;;;;21.80;51.30;;;;;;501484;237;1415;-72
2021/09/08 01:31:32;;;;;;;;;;;21.90;51.30;;;;;;501477;237;1048;-72
2021/09/08 01:33:35;;;;;;;;;;;21.80;51.40;;;;;;501425;237;1138;-72
2021/09/08 01:35:36;;;;;;;;;;;21.90;51.30;;;;;;501526;237;1057;-72
2021/09/08 01:37:37;;;;;;;;;;;21.90;50.90;;;;;;501626;237;979;-72
2021/09/08 01:39:38;;;;;;;;;;;21.80;51.10;;;;;;501399;237;1027;-72
2021/09/08 01:41:40;;;;;;;;;;;21.80;51.00;;;;;;501535;237;1136;-72
2021/09/08 01:43:41;;;;;;;;;;;21.80;51.00;;;;;;501670;237;2116;-72
2021/09/08 01:45:42;;;;;;;;;;;21.70;51.00;;;;;;501475;237;1088;-72
2021/09/08 01:47:44;;;;;;;;;;;21.80;51.00;;;;;;501452;237;1050;-72
2021/09/08 01:49:45;;;;;;;;;;;21.80;50.80;;;;;;501496;237;1121;-72
2021/09/08 01:51:47;;;;;;;;;;;21.80;50.90;;;;;;501539;237;1132;-72
2021/09/08 01:53:48;;;;;;;;;;;21.80;50.90;;;;;;501463;237;1130;-72
2021/09/08 01:55:49;;;;;;;;;;;21.80;50.90;;;;;;501605;237;1108;-72
2021/09/08 01:57:51;;;;;;;;;;;21.70;50.90;;;;;;501716;237;1067;-72
2021/09/08 01:59:52;;;;;;;;;;;21.80;50.90;;;;;;501849;237;1040;-72
2021/09/08 02:01:54;;;;;;;;;;;21.80;50.90;;;;;;501451;237;1083;-72
2021/09/08 02:03:55;;;;;;;;;;;21.80;50.80;;;;;;501470;237;2171;-72
2021/09/08 02:05:56;;;;;;;;;;;22.00;50.40;;;;;;501454;237;954;-72
2021/09/08 02:07:57;;;;;;;;;;;21.90;50.50;;;;;;501527;237;1182;-72
2021/09/08 02:09:59;;;;;;;;;;;21.80;50.60;;;;;;501422;237;1023;-72
2021/09/08 02:12:00;;;;;;;;;;;21.80;50.60;;;;;;501532;237;1189;-72
2021/09/08 02:14:01;;;;;;;;;;;21.80;50.60;;;;;;501911;237;1071;-72
2021/09/08 02:16:03;;;;;;;;;;;21.70;50.60;;;;;;501616;237;1042;-72
2021/09/08 02:18:04;;;;;;;;;;;21.80;50.60;;;;;;501379;237;1111;-72
2021/09/08 02:20:05;;;;;;;;;;;21.90;50.40;;;;;;501449;237;1038;-72
2021/09/08 02:22:07;;;;;;;;;;;21.80;50.60;;;;;;501614;237;1198;-72
2021/09/08 02:24:08;;;;;;;;;;;21.80;50.60;;;;;;501687;237;2112;-72
2021/09/08 02:26:09;;;;;;;;;;;21.70;50.60;;;;;;501318;237;1137;-72
2021/09/08 02:28:11;;;;;;;;;;;21.80;50.60;;;;;;501558;237;1165;-72
2021/09/08 02:30:12;;;;;;;;;;;21.80;50.40;;;;;;501446;237;1157;-72
2021/09/08 02:32:13;;;;;;;;;;;21.70;50.50;;;;;;501412;237;1219;-72
2021/09/08 02:34:15;;;;;;;;;;;21.80;50.50;;;;;;501787;237;1154;-72
2021/09/08 02:36:16;;;;;;;;;;;21.90;50.30;;;;;;501868;237;1234;-72
2021/09/08 02:38:17;;;;;;;;;;;21.80;50.30;;;;;;501977;237;1195;-72
2021/09/08 02:40:19;;;;;;;;;;;21.80;50.30;;;;;;501437;237;1036;-72
2021/09/08 02:42:20;;;;;;;;;;;21.80;50.30;;;;;;501439;237;1185;-72
2021/09/08 02:44:21;;;;;;;;;;;21.80;50.40;;;;;;501442;237;2460;-72
2021/09/08 02:46:22;;;;;;;;;;;21.70;50.40;;;;;;501516;237;1066;-71
2021/09/08 02:48:24;;;;;;;;;;;21.70;50.40;;;;;;501376;237;1049;-71
2021/09/08 02:50:25;;;;;;;;;;;21.80;50.20;;;;;;501478;237;1033;-72
2021/09/08 02:52:26;;;;;;;;;;;21.70;50.20;;;;;;501390;237;1114;-72
2021/09/08 02:54:28;;;;;;;;;;;21.80;50.20;;;;;;501628;237;1032;-72
2021/09/08 02:56:29;;;;;;;;;;;21.70;50.20;;;;;;501575;237;1051;-72
2021/09/08 02:58:30;;;;;;;;;;;21.80;50.20;;;;;;501377;237;1047;-72
2021/09/08 03:00:32;;;;;;;;;;;21.80;49.90;;;;;;501988;237;1040;-73
2021/09/08 03:02:33;;;;;;;;;;;21.80;50.00;;;;;;501610;237;2186;-72
2021/09/08 03:04:34;;;;;;;;;;;21.80;49.90;;;;;;501635;237;1090;-72
2021/09/08 03:06:36;;;;;;;;;;;21.80;49.90;;;;;;501319;237;1155;-72
2021/09/08 03:08:37;;;;;;;;;;;21.80;50.00;;;;;;501422;237;1063;-72
2021/09/08 03:10:39;;;;;;;;;;;21.80;49.80;;;;;;501500;237;1124;-72
2021/09/08 03:12:40;;;;;;;;;;;21.80;49.90;;;;;;501360;238;1394;-72
2021/09/08 03:14:41;;;;;;;;;;;21.80;49.80;;;;;;501532;237;980;-72
2021/09/08 03:16:42;;;;;;;;;;;21.70;50.00;;;;;;501710;237;1155;-72
2021/09/08 03:18:44;;;;;;;;;;;21.80;50.00;;;;;;501467;237;1075;-72
2021/09/08 03:20:45;;;;;;;;;;;21.70;50.00;;;;;;501500;237;1023;-72
2021/09/08 03:22:46;;;;;;;;;;;21.70;50.10;;;;;;501318;237;2187;-72
2021/09/08 03:24:48;;;;;;;;;;;21.80;49.80;;;;;;501453;237;1078;-72
2021/09/08 03:26:49;;;;;;;;;;;21.80;49.80;;;;;;501361;237;1289;-72
2021/09/08 03:28:50;;;;;;;;;;;21.70;49.80;;;;;;501521;237;1071;-72
2021/09/08 03:30:52;;;;;;;;;;;21.70;49.90;;;;;;501429;237;1071;-72
2021/09/08 03:32:53;;;;;;;;;;;21.70;49.80;;;;;;501556;237;1090;-72
2021/09/08 03:34:54;;;;;;;;;;;21.80;49.80;;;;;;501429;237;1230;-72
2021/09/08 03:36:56;;;;;;;;;;;21.90;49.40;;;;;;501366;237;1007;-72
2021/09/08 03:38:57;;;;;;;;;;;21.80;49.40;;;;;;501386;237;1102;-72
2021/09/08 03:40:58;;;;;;;;;;;21.80;49.40;;;;;;501576;237;1034;-72
2021/09/08 03:43:00;;;;;;;;;;;21.90;49.60;;;;;;501407;237;2182;-72
2021/09/08 03:45:01;;;;;;;;;;;21.80;49.50;;;;;;501537;237;1081;-72
2021/09/08 03:47:02;;;;;;;;;;;21.80;49.60;;;;;;501442;237;1167;-72
2021/09/08 03:49:04;;;;;;;;;;;21.70;49.60;;;;;;501514;237;1048;-72
2021/09/08 03:51:05;;;;;;;;;;;21.80;49.60;;;;;;501822;237;1028;-72
2021/09/08 03:53:06;;;;;;;;;;;21.80;49.60;;;;;;501488;237;1044;-72
2021/09/08 03:55:08;;;;;;;;;;;21.80;49.70;;;;;;501449;237;1164;-72
2021/09/08 03:57:09;;;;;;;;;;;21.80;49.60;;;;;;501391;237;1149;-72
2021/09/08 03:59:10;;;;;;;;;;;21.70;49.60;;;;;;501561;237;1002;-72
2021/09/08 04:01:11;;;;;;;;;;;21.70;49.70;;;;;;501357;237;1194;-72
2021/09/08 04:03:13;;;;;;;;;;;21.80;49.60;;;;;;501681;237;2188;-72
2021/09/08 04:05:14;;;;;;;;;;;21.90;49.50;;;;;;501773;237;1026;-72
2021/09/08 04:07:15;;;;;;;;;;;21.90;49.10;;;;;;501461;237;1149;-72
2021/09/08 04:09:17;;;;;;;;;;;21.90;49.50;;;;;;501510;237;1052;-72
2021/09/08 04:11:18;;;;;;;;;;;21.80;49.40;;;;;;501308;237;1061;-72
2021/09/08 04:13:19;;;;;;;;;;;21.80;49.50;;;;;;501375;237;1216;-72
2021/09/08 04:15:21;;;;;;;;;;;21.70;49.60;;;;;;501508;237;996;-72
2021/09/08 04:17:22;;;;;;;;;;;21.80;49.60;;;;;;501888;237;1153;-72
2021/09/08 04:19:23;;;;;;;;;;;21.80;49.60;;;;;;501930;237;1161;-72
2021/09/08 04:21:25;;;;;;;;;;;21.70;49.70;;;;;;501325;237;1072;-72
2021/09/08 04:23:26;;;;;;;;;;;21.80;49.70;;;;;;501311;237;2187;-72
2021/09/08 04:25:27;;;;;;;;;;;21.80;49.50;;;;;;501504;237;1196;-72
2021/09/08 04:27:29;;;;;;;;;;;21.80;49.60;;;;;;501379;233;1302;-72
2021/09/08 04:29:30;;;;;;;;;;;21.80;49.60;;;;;;501879;237;1038;-72
2021/09/08 04:31:31;;;;;;;;;;;21.80;49.60;;;;;;501892;237;1132;-72
2021/09/08 04:33:33;;;;;;;;;;;21.80;49.60;;;;;;501398;237;1080;-72
2021/09/08 04:35:34;;;;;;;;;;;22.00;49.60;;;;;;501579;237;1065;-72
2021/09/08 04:37:36;;;;;;;;;;;21.90;49.40;;;;;;501294;237;1218;-72
2021/09/08 04:39:37;;;;;;;;;;;21.80;49.60;;;;;;501661;237;1031;-72
2021/09/08 04:41:38;;;;;;;;;;;21.80;49.70;;;;;;501728;237;1046;-72
2021/09/08 04:43:40;;;;;;;;;;;21.80;49.80;;;;;;501364;237;2186;-72
2021/09/08 04:45:41;;;;;;;;;;;21.80;49.80;;;;;;501295;237;1043;-72
2021/09/08 04:47:42;;;;;;;;;;;21.80;49.80;;;;;;501311;237;1313;-72
2021/09/08 04:49:43;;;;;;;;;;;21.80;50.00;;;;;;501310;237;1255;-72
2021/09/08 04:51:45;;;;;;;;;;;21.70;49.90;;;;;;501479;237;1211;-72
2021/09/08 04:53:46;;;;;;;;;;;21.80;49.80;;;;;;501424;237;1078;-72
2021/09/08 04:55:48;;;;;;;;;;;21.80;49.90;;;;;;501323;237;1066;-72
2021/09/08 04:57:49;;;;;;;;;;;21.80;49.90;;;;;;501596;234;1270;-72
2021/09/08 04:59:50;;;;;;;;;;;21.70;50.00;;;;;;501799;237;1046;-72
2021/09/08 05:01:51;;;;;;;;;;;21.70;50.00;;;;;;501644;237;1276;-72
2021/09/08 05:03:53;;;;;;;;;;;21.80;49.90;;;;;;501486;237;2179;-72
2021/09/08 05:05:54;;;;;;;;;;;21.90;49.80;;;;;;501549;237;1418;-72
2021/09/08 05:07:55;;;;;;;;;;;21.80;49.70;;;;;;501435;237;1083;-72
2021/09/08 05:09:57;;;;;;;;;;;21.90;49.80;;;;;;501188;237;1107;-72
2021/09/08 05:11:58;;;;;;;;;;;21.80;49.80;;;;;;501161;237;1254;-72
2021/09/08 05:14:00;;;;;;;;;;;21.80;49.80;;;;;;501272;237;1194;-72
2021/09/08 05:16:01;;;;;;;;;;;21.80;49.90;;;;;;501480;237;1160;-72
2021/09/08 05:18:02;;;;;;;;;;;21.80;50.00;;;;;;501272;237;1160;-72
2021/09/08 05:20:04;;;;;;;;;;;21.70;50.10;;;;;;501397;237;1064;-72
2021/09/08 05:22:05;;;;;;;;;;;21.70;50.20;;;;;;501204;237;1174;-72
2021/09/08 05:24:06;;;;;;;;;;;21.70;50.20;;;;;;501134;237;2183;-72
2021/09/08 05:26:08;;;;;;;;;;;21.80;50.20;;;;;;500677;237;1235;-72
2021/09/08 05:28:09;;;;;;;;;;;21.90;50.10;;;;;;500807;237;1406;-72
2021/09/08 05:30:10;;;;;;;;;;;21.80;50.20;;;;;;500969;237;1035;-72
2021/09/08 05:32:12;;;;;;;;;;;21.80;50.40;;;;;;500742;237;1062;-72
2021/09/08 05:34:13;;;;;;;;;;;21.80;50.20;;;;;;500858;237;1097;-72
2021/09/08 05:36:15;;;;;;;;;;;22.00;49.90;;;;;;500736;237;1056;-72
2021/09/08 05:38:16;;;;;;;;;;;21.90;50.10;;;;;;501463;237;1099;-72
2021/09/08 05:40:17;;;;;;;;;;;21.90;50.30;;;;;;500844;237;808;-72
2021/09/08 05:42:18;;;;;;;;;;;21.80;50.30;;;;;;500660;237;1267;-72
2021/09/08 05:44:20;;;;;;;;;;;21.80;50.30;;;;;;500952;237;2187;-72
2021/09/08 05:46:21;;;;;;;;;;;21.80;50.40;;;;;;500808;237;727;-72
2021/09/08 05:48:22;;;;;;;;;;;21.80;50.50;;;;;;501367;237;874;-72
2021/09/08 05:50:24;;;;;;;;;;;21.90;50.40;;;;;;501334;237;1208;-72
2021/09/08 05:52:25;;;;;;;;;;;21.90;50.50;;;;;;500877;237;1016;-72
2021/09/08 05:54:26;;;;;;;;;;;21.90;50.50;;;;;;500957;237;794;-72
2021/09/08 05:56:28;;;;;;;;;;;21.90;50.60;;;;;;501377;237;1407;-72
2021/09/08 05:58:29;;;;;;;;;;;21.80;50.70;;;;;;501175;237;1048;-72
2021/09/08 06:00:30;;;;;;;;;;;21.80;50.90;;;;;;500883;237;679;-72
2021/09/08 06:02:32;;;;;;;;;;;21.80;50.90;;;;;;500795;237;1097;-72
2021/09/08 06:04:33;;;;;;;;;;;21.80;50.90;;;;;;500840;237;2176;-72
2021/09/08 06:06:34;;;;;;;;;;;21.90;50.80;;;;;;501373;237;1403;-72
2021/09/08 06:08:36;;;;;;;;;;;21.80;50.90;;;;;;500930;237;798;-72
2021/09/08 06:10:37;;;;;;;;;;;22.00;50.80;;;;;;500916;237;798;-72
2021/09/08 06:12:38;;;;;;;;;;;21.90;50.90;;;;;;500846;237;1054;-72
2021/09/08 06:14:40;;;;;;;;;;;21.80;51.10;;;;;;500918;237;1097;-72
2021/09/08 06:16:41;;;;;;;;;;;21.90;51.20;;;;;;501223;237;1327;-72
2021/09/08 06:18:43;;;;;;;;;;;21.80;51.30;;;;;;500887;237;795;-72
2021/09/08 06:20:43;;;;;;;;;;;21.80;51.50;;;;;;501249;238;1304;-72
2021/09/08 06:22:45;;;;;;;;;;;21.70;51.50;;;;;;501238;237;786;-72
2021/09/08 06:24:46;;;;;;;;;;;21.70;51.60;;;;;;501283;237;2183;-72
2021/09/08 06:26:47;;;;;;;;;;;21.70;51.70;;;;;;500778;237;680;-72
2021/09/08 06:28:51;;;;;;;;;;;21.80;51.60;;;;;;500917;237;1392;-72
2021/09/08 06:30:50;;;;;;;;;;;21.80;51.70;;;;;;501136;238;1759;-72
2021/09/08 06:32:52;;;;;;;;;;;21.80;51.80;;;;;;500661;237;1127;-72
2021/09/08 06:34:53;;;;;;;;;;;21.80;51.90;;;;;;501248;237;750;-72
2021/09/08 06:36:54;;;;;;;;;;;21.80;51.90;;;;;;501216;237;1060;-72
2021/09/08 06:38:56;;;;;;;;;;;21.80;51.90;;;;;;501213;237;830;-72
2021/09/08 06:40:58;;;;;;;;;;;21.80;52.00;;;;;;500657;237;1331;-72
2021/09/08 06:42:58;;;;;;;;;;;21.80;52.20;;;;;;500444;237;1260;-72
2021/09/08 06:45:00;;;;;;;;;;;21.70;52.20;;;;;;500712;237;2199;-72
2021/09/08 06:47:01;;;;;;;;;;;21.80;52.30;;;;;;501214;237;1045;-72
2021/09/08 06:49:02;;;;;;;;;;;21.80;52.50;;;;;;500665;237;727;-72
2021/09/08 06:51:04;;;;;;;;;;;21.80;52.50;;;;;;500636;237;1328;-72
2021/09/08 06:53:05;;;;;;;;;;;21.70;52.50;;;;;;500727;237;1061;-72
2021/09/08 06:55:06;;;;;;;;;;;21.70;52.70;;;;;;501075;237;867;-72
2021/09/08 06:57:09;;;;;;;;;;;21.70;52.70;;;;;;500248;237;1009;-72
2021/09/08 06:59:09;;;;;;;;;;;21.70;52.90;;;;;;500494;237;2233;-72
2021/09/08 07:01:10;;;;;;;;;;;21.80;52.80;;;;;;500559;237;955;-72
2021/09/08 07:03:11;;;;;;;;;;;21.80;52.90;;;;;;500681;237;1236;-72
2021/09/08 07:05:13;;;;;;;;;;;21.80;53.00;;;;;;500795;237;2175;-72
2021/09/08 07:07:14;;;;;;;;;;;22.00;52.50;;;;;;501090;237;1084;-72
2021/09/08 07:09:16;;;;;;;;;;;21.80;52.80;;;;;;500717;237;738;-72
2021/09/08 07:11:17;;;;;;;;;;;21.80;53.00;;;;;;501165;237;968;-72
2021/09/08 07:13:18;;;;;;;;;;;21.90;53.00;;;;;;500697;237;838;-72
2021/09/08 07:15:19;;;;;;;;;;;21.80;53.20;;;;;;500526;237;1279;-72
2021/09/08 07:17:21;;;;;;;;;;;21.80;53.30;;;;;;500214;237;1112;-72
2021/09/08 07:19:22;;;;;;;;;;;21.80;53.40;;;;;;501296;237;825;-72
2021/09/08 07:21:23;;;;;;;;;;;21.70;53.60;;;;;;500687;237;1156;-72
2021/09/08 07:23:25;;;;;;;;;;;21.80;53.60;;;;;;500298;237;1026;-72
2021/09/08 07:25:26;;;;;;;;;;;21.80;53.70;;;;;;500363;237;2199;-72
2021/09/08 07:27:27;;;;;;;;;;;21.80;53.80;;;;;;500369;237;1002;-72
2021/09/08 07:29:29;;;;;;;;;;;21.80;53.80;;;;;;500320;237;1061;-72
2021/09/08 07:31:30;;;;;;;;;;;21.90;53.70;;;;;;500472;237;1407;-72
2021/09/08 07:33:31;;;;;;;;;;;21.80;53.90;;;;;;500989;237;1034;-72
2021/09/08 07:35:32;;;;;;;;;;;22.00;54.00;;;;;;500414;237;792;-72
2021/09/08 07:37:37;;;;;;;;;;;22.10;53.60;;;;;;500812;235;1489;-72
2021/09/08 07:39:35;;;;;;;;;;;22.00;53.90;;;;;;500827;238;1208;-72
2021/09/08 07:41:36;;;;;;;;;;;21.80;54.00;;;;;;500610;237;1363;-72
2021/09/08 07:43:38;;;;;;;;;;;21.90;54.20;;;;;;499961;237;1231;-72
2021/09/08 07:45:39;;;;;;;;;;;21.90;54.20;;;;;;500081;237;2207;-72
2021/09/08 07:47:40;;;;;;;;;;;21.90;54.30;;;;;;500125;237;1216;-72
2021/09/08 07:49:42;;;;;;;;;;;22.00;54.30;;;;;;500661;237;841;-72
2021/09/08 07:51:43;;;;;;;;;;;21.90;54.50;;;;;;500404;237;1110;-72
2021/09/08 07:53:44;;;;;;;;;;;21.90;54.50;;;;;;500379;237;742;-72
2021/09/08 07:55:46;;;;;;;;;;;21.90;54.50;;;;;;501103;237;1365;-72
2021/09/08 07:57:47;;;;;;;;;;;21.90;54.70;;;;;;500969;237;1030;-72
2021/09/08 07:59:49;;;;;;;;;;;21.90;54.70;;;;;;500845;233;1189;-72
2021/09/08 08:01:50;;;;;;;;;;;21.90;54.80;;;;;;500466;237;969;-72
2021/09/08 08:03:51;;;;;;;;;;;21.90;54.80;;;;;;500542;237;1060;-72
2021/09/08 08:05:53;;;;;;;;;;;22.10;54.60;;;;;;500554;237;2191;-72
2021/09/08 08:07:54;;;;;;;;;;;22.00;54.60;;;;;;500633;237;809;-72
2021/09/08 08:09:55;;;;;;;;;;;21.90;54.80;;;;;;501074;237;806;-72
2021/09/08 08:11:57;;;;;;;;;;;21.90;55.00;;;;;;500459;237;1040;-72
2021/09/08 08:13:58;;;;;;;;;;;22.00;55.00;;;;;;500523;237;842;-72
2021/09/08 08:15:59;;;;;;;;;;;22.00;55.10;;;;;;499703;237;1443;-72
2021/09/08 08:18:01;;;;;;;;;;;22.00;55.20;;;;;;498839;238;968;-72
2021/09/08 08:20:04;;;;;;;;;;;22.00;55.10;;;;;;498982;238;812;-72
2021/09/08 08:22:03;;;;;;;;;;;22.00;55.20;;;;;;498785;238;1289;-72
2021/09/08 08:24:04;;;;;;;;;;;22.00;55.20;;;;;;498577;238;946;-72
2021/09/08 08:26:06;;;;;;;;;;;21.90;55.30;;;;;;498855;238;2192;-72
2021/09/08 08:28:07;;;;;;;;;;;22.00;55.20;;;;;;498888;238;1086;-72
2021/09/08 08:30:08;;;;;;;;;;;22.00;55.20;;;;;;498401;238;1093;-72
2021/09/08 08:32:10;;;;;;;;;;;22.00;55.20;;;;;;498619;238;1155;-72
2021/09/08 08:34:12;;;;;;;;;;;22.00;55.20;;;;;;498661;237;776;-72
2021/09/08 08:36:12;;;;;;;;;;;22.20;54.80;;;;;;498004;238;1515;-72
2021/09/08 08:38:14;;;;;;;;;;;22.10;55.00;;;;;;498670;238;806;-72
2021/09/08 08:40:15;;;;;;;;;;;22.10;55.00;;;;;;498612;238;844;-72
2021/09/08 08:42:16;;;;;;;;;;;22.00;55.20;;;;;;498779;238;1164;-72
2021/09/08 08:44:18;;;;;;;;;;;22.10;55.40;;;;;;498288;238;813;-72
2021/09/08 08:46:19;;;;;;;;;;;22.10;55.40;;;;;;498292;238;2207;-72
2021/09/08 08:48:20;;;;;;;;;;;22.10;55.40;;;;;;498663;238;1026;-72
2021/09/08 08:50:25;;;;;;;;;;;22.00;55.70;;;;;;498639;238;838;-72
2021/09/08 08:52:23;;;;;;;;;;;22.10;55.60;;;;;;497902;238;1293;-72
2021/09/08 08:54:24;;;;;;;;;;;22.00;55.60;;;;;;498306;238;801;-72
2021/09/08 08:56:26;;;;;;;;;;;22.00;55.60;;;;;;498887;238;1168;-72
2021/09/08 08:58:27;;;;;;;;;;;22.00;55.80;;;;;;498512;238;1346;-72
2021/09/08 09:00:28;;;;;;;;;;;22.10;55.80;;;;;;498697;238;1393;-72
2021/09/08 09:02:30;;;;;;;;;;;22.10;55.60;;;;;;498844;238;984;-71
2021/09/08 09:04:31;;;;;;;;;;;22.10;55.70;;;;;;498946;237;820;-72
2021/09/08 09:06:32;;;;;;;;;;;22.20;55.70;;;;;;498502;238;2181;-72
2021/09/08 09:08:33;;;;;;;;;;;22.10;55.70;;;;;;498903;238;1348;-72
2021/09/08 09:10:35;;;;;;;;;;;22.10;55.90;;;;;;498922;238;1355;-72
2021/09/08 09:12:36;;;;;;;;;;;22.00;56.10;;;;;;498231;238;991;-72
2021/09/08 09:14:37;;;;;;;;;;;22.00;56.30;;;;;;497225;238;1210;-72
2021/09/08 09:16:39;;;;;;;;;;;22.00;56.30;;;;;;498133;238;1180;-72
2021/09/08 09:18:42;;;;;;;;;;;22.00;56.30;;;;;;498777;238;810;-72
2021/09/08 09:20:43;;;;;;;;;;;22.00;56.40;;;;;;498554;238;1397;-72
2021/09/08 09:22:43;;;;;;;;;;;22.10;56.30;;;;;;498790;238;1296;-72
2021/09/08 09:24:44;;;;;;;;;;;22.10;56.20;;;;;;498454;238;2195;-72
2021/09/08 09:26:46;;;;;;;;;;;22.10;56.30;;;;;;498440;238;1167;-72
2021/09/08 09:28:47;;;;;;;;;;;22.10;56.30;;;;;;498476;238;826;-72
2021/09/08 09:30:48;;;;;;;;;;;22.10;56.30;;;;;;498662;238;1003;-72
2021/09/08 09:32:50;;;;;;;;;;;22.10;56.30;;;;;;498904;238;1054;-72
2021/09/08 09:34:51;;;;;;;;;;;22.00;56.40;;;;;;498502;238;786;-72
2021/09/08 09:36:52;;;;;;;;;;;22.20;56.20;;;;;;498804;238;1462;-72
2021/09/08 09:38:54;;;;;;;;;;;22.10;56.30;;;;;;498828;238;738;-72
2021/09/08 09:40:55;;;;;;;;;;;22.20;56.10;;;;;;498843;238;848;-72
2021/09/08 09:42:56;;;;;;;;;;;22.20;56.20;;;;;;498716;238;832;-72
2021/09/08 09:44:58;;;;;;;;;;;22.20;56.30;;;;;;498822;238;2180;-72
2021/09/08 09:47:00;;;;;;;;;;;22.20;56.30;;;;;;498237;238;1465;-72
2021/09/08 09:49:00;;;;;;;;;;;22.20;56.30;;;;;;498523;239;1146;-72
2021/09/08 09:51:02;;;;;;;;;;;22.20;56.30;;;;;;498836;238;1195;-72
2021/09/08 09:53:03;;;;;;;;;;;22.20;56.30;;;;;;498005;237;1027;-72
2021/09/08 09:55:04;;;;;;;;;;;22.30;56.50;;;;;;498524;238;841;-72
2021/09/08 09:57:06;;;;;;;;;;;22.20;56.40;;;;;;497986;238;1090;-72
2021/09/08 09:59:07;;;;;;;;;;;22.20;56.50;;;;;;498063;238;776;-72
2021/09/08 10:01:08;;;;;;;;;;;22.20;56.50;;;;;;498327;238;1155;-72
2021/09/08 10:03:10;;;;;;;;;;;22.30;56.50;;;;;;498484;238;999;-72
2021/09/08 10:05:11;;;;;;;;;;;22.30;56.50;;;;;;498599;238;2185;-72
2021/09/08 10:07:12;;;;;;;;;;;22.30;56.40;;;;;;498431;238;1020;-72
2021/09/08 10:09:14;;;;;;;;;;;22.30;56.60;;;;;;499006;238;802;-61
2021/09/08 10:11:15;;;;;;;;;;;22.60;56.00;;;;;;498558;238;1131;-72
2021/09/08 10:13:16;;;;;;;;;;;22.90;54.50;;;;;;497863;238;1283;-73
2021/09/08 10:15:17;;;;;;;;;;;22.60;55.40;;;;;;497732;238;1387;-73
2021/09/08 10:17:19;;;;;;;;;;;22.50;55.90;;;;;;497918;238;1069;-73
2021/09/08 10:19:20;;;;;;;;;;;22.50;56.10;;;;;;497794;238;839;-71
2021/09/08 10:21:21;;;;;;;;;;;22.40;56.30;;;;;;498303;238;1546;-72
2021/09/08 10:23:23;;;;;;;;;;;22.40;56.40;;;;;;498414;238;731;-70
2021/09/08 10:25:24;;;;;;;;;;;22.40;56.40;;;;;;498479;238;2211;-72
2021/09/08 10:27:25;;;;;;;;;;;22.40;56.30;;;;;;498121;238;1024;-71
2021/09/08 10:29:27;;;;;;;;;;;22.20;56.70;;;;;;498304;238;757;-71
2021/09/08 10:31:28;;;;;;;;;;;22.30;56.80;;;;;;498149;238;1301;-72
2021/09/08 10:33:29;;;;;;;;;;;22.30;56.90;;;;;;498527;238;845;-72
2021/09/08 10:35:34;;;;;;;;;;;22.20;57.00;;;;;;498772;238;829;-71
2021/09/08 10:37:32;;;;;;;;;;;22.20;57.00;;;;;;498228;238;1379;-71
2021/09/08 10:39:33;;;;;;;;;;;22.20;57.10;;;;;;498470;238;794;-71
2021/09/08 10:41:35;;;;;;;;;;;22.20;57.10;;;;;;498420;238;1396;-71
2021/09/08 10:43:36;;;;;;;;;;;22.20;57.10;;;;;;498327;238;802;-71
2021/09/08 10:45:37;;;;;;;;;;;22.20;57.30;;;;;;498769;238;2179;-71
2021/09/08 10:47:39;;;;;;;;;;;22.10;57.30;;;;;;498419;238;1023;-71
2021/09/08 10:49:40;;;;;;;;;;;22.10;57.30;;;;;;498830;238;819;-71
2021/09/08 10:51:42;;;;;;;;;;;22.10;57.40;;;;;;498388;238;1179;-71
2021/09/08 10:53:43;;;;;;;;;;;22.20;57.30;;;;;;497870;238;1136;-71
2021/09/08 10:55:44;;;;;;;;;;;22.20;57.30;;;;;;498437;238;795;-72
2021/09/08 10:57:47;;;;;;;;;;;22.20;57.30;;;;;;498892;238;805;-72
2021/09/08 10:59:47;;;;;;;;;;;22.20;57.30;;;;;;499089;238;1352;-72
2021/09/08 11:01:48;;;;;;;;;;;22.20;57.20;;;;;;498799;238;1079;-72
2021/09/08 11:03:49;;;;;;;;;;;22.20;57.40;;;;;;498994;238;808;-71
2021/09/08 11:05:51;;;;;;;;;;;22.20;57.40;;;;;;498434;238;2200;-71
2021/09/08 11:07:52;;;;;;;;;;;22.20;57.30;;;;;;498509;238;861;-71
2021/09/08 11:09:54;;;;;;;;;;;22.20;57.30;;;;;;498593;238;846;-71
2021/09/08 11:11:56;;;;;;;;;;;22.20;57.30;;;;;;498697;238;1063;-71
2021/09/08 11:13:56;;;;;;;;;;;22.20;57.30;;;;;;499156;238;1338;-71
2021/09/08 11:15:57;;;;;;;;;;;22.00;57.60;;;;;;498868;238;1289;-71
2021/09/08 11:17:59;;;;;;;;;;;22.10;57.70;;;;;;498593;238;1111;-71
2021/09/08 11:20:03;;;;;;;;;;;22.10;57.80;;;;;;498509;238;1325;-71
2021/09/08 11:22:01;;;;;;;;;;;22.10;57.80;;;;;;498285;238;1332;-71
2021/09/08 11:24:03;;;;;;;;;;;22.20;57.70;;;;;;498590;238;1108;-72
2021/09/08 11:26:04;;;;;;;;;;;22.10;57.70;;;;;;498539;238;2192;-72
2021/09/08 11:28:07;;;;;;;;;;;22.20;57.60;;;;;;498440;238;1126;-72
2021/09/08 11:30:07;;;;;;;;;;;22.10;57.60;;;;;;498074;238;1378;-72
2021/09/08 11:32:08;;;;;;;;;;;22.10;57.60;;;;;;498041;238;1080;-72
2021/09/08 11:34:09;;;;;;;;;;;22.10;57.60;;;;;;498114;238;1069;-72
2021/09/08 11:36:11;;;;;;;;;;;22.20;57.60;;;;;;497943;238;1069;-72
2021/09/08 11:38:12;;;;;;;;;;;22.10;57.80;;;;;;498262;238;1085;-72
2021/09/08 11:40:13;;;;;;;;;;;22.20;57.60;;;;;;498221;238;1058;-72
2021/09/08 11:42:15;;;;;;;;;;;22.20;57.60;;;;;;498439;238;1085;-72
2021/09/08 11:44:16;;;;;;;;;;;22.10;57.70;;;;;;498325;238;1700;-72
2021/09/08 11:46:18;;;;;;;;;;;22.10;57.90;;;;;;498230;238;2133;-72
2021/09/08 11:48:19;;;;;;;;;;;22.10;58.00;;;;;;498349;238;1122;-71
2021/09/08 11:50:20;;;;;;;;;;;22.10;57.80;;;;;;498210;238;1027;-71
2021/09/08 11:52:21;;;;;;;;;;;22.10;57.90;;;;;;498036;238;1224;-72
2021/09/08 11:54:23;;;;;;;;;;;22.00;58.20;;;;;;498188;238;1067;-72
2021/09/08 11:56:24;;;;;;;;;;;22.00;58.40;;;;;;498081;238;1049;-69
2021/09/08 11:58:25;;;;;;;;;;;21.80;58.70;;;;;;497999;238;1067;-69